Time;durP1;ratioP1;P1;durP2;ratioP2;P2;SDS_P1;SDS_P2;PMS_P1;PMS_P2;Temp;Humidity;BMP_temperature;BMP_pressure;BME280_temperature;BME280_humidity;BME280_pressure;Samples;Min_cycle;Max_cycle;Signal;HPM_P1;HPM_P2
2023/01/02 00:01:27;;;;;;;14.93;3.30;;;13.00;99.90;;;;;;5090480;28;20136;-79
2023/01/02 00:03:55;;;;;;;9.10;3.03;;;12.90;99.90;;;;;;5090296;28;20045;-79
2023/01/02 00:06:22;;;;;;;11.45;3.28;;;12.90;99.90;;;;;;5089538;28;20024;-79
2023/01/02 00:08:47;;;;;;;8.55;3.10;;;13.00;99.90;;;;;;5094159;28;20020;-75
2023/01/02 00:11:13;;;;;;;7.22;2.85;;;12.90;99.90;;;;;;5094478;28;20024;-78
2023/01/02 00:13:39;;;;;;;11.43;3.78;;;13.00;99.90;;;;;;5094315;28;20504;-78
2023/01/02 00:16:05;;;;;;;15.07;3.30;;;13.00;99.90;;;;;;5094460;28;20044;-78
2023/01/02 00:18:30;;;;;;;8.43;2.65;;;13.00;99.90;;;;;;5094604;28;20024;-78
2023/01/02 00:21:01;;;;;;;8.35;2.70;;;13.00;99.90;;;;;;5094717;28;20031;-77
2023/01/02 00:23:27;;;;;;;9.65;2.83;;;13.00;99.90;;;;;;5093317;28;20024;-77
2023/01/02 00:25:52;;;;;;;9.02;2.65;;;13.00;99.90;;;;;;5094281;28;20035;-78
2023/01/02 00:28:18;;;;;;;6.68;2.90;;;13.10;99.90;;;;;;5094007;28;20040;-78
2023/01/02 00:30:44;;;;;;;14.20;3.67;;;13.10;99.90;;;;;;5094298;28;20469;-76
2023/01/02 00:33:09;;;;;;;11.90;4.57;;;13.10;99.90;;;;;;5094013;28;20028;-79
2023/01/02 00:35:37;;;;;;;7.03;3.35;;;13.10;99.90;;;;;;5094627;28;20032;-76
2023/01/02 00:38:03;;;;;;;11.13;2.47;;;13.10;99.90;;;;;;5094177;28;20032;-78
2023/01/02 00:40:28;;;;;;;12.50;2.75;;;13.10;99.90;;;;;;5093389;28;20093;-78
2023/01/02 00:42:54;;;;;;;10.40;3.13;;;13.10;99.90;;;;;;5093315;28;20422;-78
2023/01/02 00:45:20;;;;;;;7.32;2.70;;;13.10;99.90;;;;;;5093783;28;20035;-78
2023/01/02 00:47:48;;;;;;;7.80;2.80;;;13.20;99.90;;;;;;5093211;28;20043;-78
2023/01/02 00:50:14;;;;;;;13.13;2.97;;;13.20;99.90;;;;;;5094050;28;20056;-79
2023/01/02 00:52:40;;;;;;;9.43;2.55;;;13.20;99.90;;;;;;5093502;28;20123;-78
2023/01/02 00:55:06;;;;;;;9.10;2.53;;;13.20;99.90;;;;;;5093603;28;20024;-78
2023/01/02 00:57:31;;;;;;;8.50;2.90;;;13.20;99.90;;;;;;5093366;28;20024;-78
2023/01/02 00:59:57;;;;;;;11.70;2.92;;;13.30;99.90;;;;;;5093182;28;20024;-77
2023/01/02 01:02:23;;;;;;;18.88;3.97;;;13.30;99.90;;;;;;5099566;28;20358;-78
2023/01/02 01:04:49;;;;;;;9.38;2.75;;;13.30;99.90;;;;;;5093052;28;20377;-78
2023/01/02 01:07:15;;;;;;;11.35;3.42;;;13.30;99.90;;;;;;5093586;28;20130;-77
2023/01/02 01:09:40;;;;;;;10.07;3.00;;;13.30;99.90;;;;;;5093073;28;20043;-79
2023/01/02 01:12:06;;;;;;;11.55;3.47;;;13.30;99.90;;;;;;5093796;28;20512;-78
2023/01/02 01:14:32;;;;;;;10.25;2.35;;;13.30;99.90;;;;;;5092023;28;20373;-77
2023/01/02 01:16:59;;;;;;;11.20;3.92;;;13.30;99.90;;;;;;5093177;28;20040;-77
2023/01/02 01:19:28;;;;;;;11.70;2.90;;;13.30;99.90;;;;;;5093119;28;20620;-77
2023/01/02 01:21:54;;;;;;;7.80;2.92;;;13.40;99.90;;;;;;5092124;28;20052;-77
2023/01/02 01:24:19;;;;;;;9.40;2.20;;;13.40;99.90;;;;;;5092721;28;20058;-77
2023/01/02 01:26:45;;;;;;;15.45;3.35;;;13.40;99.90;;;;;;5092318;28;20511;-77
2023/01/02 01:29:11;;;;;;;11.35;2.72;;;13.40;99.90;;;;;;5093044;28;20036;-76
2023/01/02 01:31:37;;;;;;;10.25;3.20;;;13.40;99.90;;;;;;5091700;28;20342;-77
2023/01/02 01:34:02;;;;;;;15.50;2.95;;;13.40;99.90;;;;;;5092843;28;20040;-77
2023/01/02 01:36:31;;;;;;;11.93;2.72;;;13.50;99.90;;;;;;5091829;28;20031;-77
2023/01/02 01:38:57;;;;;;;12.65;3.17;;;13.50;99.90;;;;;;5092456;28;20345;-76
2023/01/02 01:41:24;;;;;;;9.63;3.22;;;13.50;99.90;;;;;;5092424;28;20032;-77
2023/01/02 01:43:56;;;;;;;7.10;2.70;;;13.60;99.90;;;;;;5091651;28;20388;-78
2023/01/02 01:46:37;;;;;;;10.95;2.60;;;13.60;99.90;;;;;;5092943;28;20089;-78
2023/01/02 01:49:23;;;;;;;11.23;3.50;;;13.60;99.90;;;;;;5091768;28;20039;-77
2023/01/02 01:51:50;;;;;;;49.05;26.38;;;13.60;99.90;;;;;;5092909;28;20357;-78
2023/01/02 01:54:22;;;;;;;7.22;3.22;;;13.60;99.90;;;;;;5092392;28;20473;-78
2023/01/02 01:56:51;;;;;;;11.88;2.90;;;13.60;99.90;;;;;;5092977;28;20024;-78
2023/01/02 01:59:18;;;;;;;10.05;2.33;;;13.60;99.90;;;;;;5091362;28;20424;-77
2023/01/02 02:01:46;;;;;;;6.45;2.50;;;13.60;99.90;;;;;;5092449;28;20046;-77
2023/01/02 02:04:12;;;;;;;6.78;2.90;;;13.60;99.90;;;;;;5092460;28;20526;-75
2023/01/02 02:06:39;;;;;;;6.65;2.22;;;13.60;99.90;;;;;;5091076;28;20037;-74
2023/01/02 02:09:18;;;;;;;20.05;3.03;;;13.60;99.90;;;;;;5092689;28;20430;-78
2023/01/02 02:11:45;;;;;;;13.43;3.22;;;13.70;99.90;;;;;;5091144;28;20045;-78
2023/01/02 02:14:11;;;;;;;7.25;2.50;;;13.60;99.90;;;;;;5091126;28;20049;-77
2023/01/02 02:16:48;;;;;;;12.65;2.25;;;13.70;99.90;;;;;;5091016;28;20044;-77
2023/01/02 02:19:33;;;;;;;9.10;3.05;;;13.70;99.90;;;;;;5092183;28;20066;-76
2023/01/02 02:22:19;;;;;;;13.27;2.28;;;13.70;99.90;;;;;;5092141;28;20028;-78
2023/01/02 02:25:14;;;;;;;12.02;2.58;;;13.70;99.90;;;;;;5091916;28;20096;-76
2023/01/02 02:28:20;;;;;;;7.50;2.22;;;13.70;99.90;;;;;;5092097;28;20124;-79
2023/01/02 02:31:12;;;;;;;9.40;2.60;;;13.70;99.90;;;;;;5070021;28;20032;-78
2023/01/02 02:33:40;;;;;;;7.50;2.22;;;13.70;99.90;;;;;;5091844;28;20032;-76
2023/01/02 02:36:29;;;;;;;16.73;2.40;;;13.80;99.90;;;;;;5102713;28;20062;-77
2023/01/02 02:39:13;;;;;;;9.95;2.63;;;13.80;99.90;;;;;;5112220;28;20051;-78
2023/01/02 02:41:48;;;;;;;10.25;2.53;;;13.80;99.90;;;;;;5110815;28;20090;-78
2023/01/02 02:44:17;;;;;;;8.35;2.63;;;13.80;99.90;;;;;;5111066;28;20119;-77
2023/01/02 02:47:16;;;;;;;8.15;2.85;;;13.80;99.90;;;;;;5112187;28;20059;-78
2023/01/02 02:49:48;;;;;;;5.20;2.17;;;13.90;99.90;;;;;;5110865;28;20047;-77
2023/01/02 02:52:22;;;;;;;6.85;2.47;;;13.90;99.90;;;;;;5111811;28;20038;-77
2023/01/02 02:55:01;;;;;;;9.57;2.55;;;13.90;99.90;;;;;;5111777;28;20027;-79
2023/01/02 02:57:29;;;;;;;9.68;2.60;;;13.90;99.90;;;;;;5111666;28;20027;-76
2023/01/02 02:59:55;;;;;;;11.05;2.63;;;13.90;99.90;;;;;;5112174;28;20469;-77
2023/01/02 03:02:21;;;;;;;8.25;2.58;;;14.00;99.90;;;;;;5111626;28;20465;-75
2023/01/02 03:04:51;;;;;;;7.97;2.13;;;14.00;99.90;;;;;;5111602;28;20120;-79
2023/01/02 03:07:37;;;;;;;13.75;2.47;;;14.00;99.90;;;;;;5111572;27;20106;-79
2023/01/02 03:10:27;;;;;;;5.93;2.25;;;14.00;99.90;;;;;;5110307;28;20443;-77
2023/01/02 03:13:21;;;;;;;9.00;2.38;;;14.00;99.90;;;;;;5111548;28;20032;-78
2023/01/02 03:15:59;;;;;;;9.85;2.45;;;14.00;99.90;;;;;;5111181;28;20042;-78
2023/01/02 03:18:54;;;;;;;10.90;2.75;;;14.00;99.90;;;;;;5111606;28;20358;-77
2023/01/02 03:21:28;;;;;;;8.27;2.45;;;14.00;99.90;;;;;;5109935;28;20445;-79
2023/01/02 03:23:56;;;;;;;5.68;2.33;;;14.00;99.90;;;;;;5110936;28;20416;-77
2023/01/02 03:26:27;;;;;;;11.63;3.20;;;14.00;99.90;;;;;;5110394;28;20364;-76
2023/01/02 03:28:57;;;;;;;12.85;2.33;;;14.00;99.90;;;;;;5111196;28;20027;-77
2023/01/02 03:31:26;;;;;;;11.00;2.45;;;14.10;99.90;;;;;;5111473;28;20036;-76
2023/01/02 03:33:57;;;;;;;8.85;2.55;;;14.10;99.90;;;;;;5111228;28;20027;-78
2023/01/02 03:36:28;;;;;;;10.20;3.58;;;14.10;99.90;;;;;;5111139;28;20027;-77
2023/01/02 03:39:04;;;;;;;8.63;2.13;;;14.10;99.90;;;;;;5112133;28;20027;-78
2023/01/02 03:41:42;;;;;;;10.73;2.92;;;14.10;99.90;;;;;;5110111;28;20081;-78
2023/01/02 03:44:11;;;;;;;13.88;2.53;;;14.10;99.90;;;;;;5111122;28;20179;-77
2023/01/02 03:46:39;;;;;;;7.25;2.13;;;14.20;99.90;;;;;;5111236;28;20023;-77
2023/01/02 03:49:13;;;;;;;11.77;2.67;;;14.10;99.90;;;;;;5111112;28;20039;-79
2023/01/02 03:51:40;;;;;;;10.15;2.63;;;14.10;99.90;;;;;;5110980;28;20031;-77
2023/01/02 03:54:06;;;;;;;8.88;2.08;;;14.10;99.90;;;;;;5111287;28;20054;-79
2023/01/02 03:56:32;;;;;;;10.98;2.55;;;14.10;99.90;;;;;;5110947;28;20032;-77
2023/01/02 03:59:19;;;;;;;8.38;2.28;;;14.10;99.90;;;;;;5110868;28;20024;-78
2023/01/02 04:01:51;;;;;;;11.75;2.30;;;14.10;99.90;;;;;;5110881;28;20055;-77
2023/01/02 04:04:48;;;;;;;6.85;2.60;;;14.10;99.90;;;;;;5111003;28;20035;-78
2023/01/02 04:07:21;;;;;;;9.90;2.72;;;14.10;99.90;;;;;;5111150;28;20032;-76
2023/01/02 04:09:48;;;;;;;7.45;2.30;;;14.10;99.90;;;;;;5110714;28;20031;-78
2023/01/02 04:12:19;;;;;;;11.45;2.22;;;14.00;99.90;;;;;;5111074;28;20472;-76
2023/01/02 04:14:51;;;;;;;13.57;2.42;;;14.10;99.90;;;;;;5109907;28;20112;-77
2023/01/02 04:17:19;;;;;;;34.17;15.23;;;14.10;99.90;;;;;;5111130;28;20047;-78
2023/01/02 04:19:50;;;;;;;;;;;14.10;99.90;;;;;;5111110;28;20032;-77
2023/01/02 04:22:20;;;;;;;13.70;3.00;;;14.10;99.90;;;;;;5109421;28;20272;-77
2023/01/02 04:24:53;;;;;;;7.22;2.10;;;14.10;99.90;;;;;;5110476;28;20049;-77
2023/01/02 04:27:30;;;;;;;8.15;2.28;;;14.10;99.90;;;;;;5109465;28;20023;-76
2023/01/02 04:29:56;;;;;;;7.22;2.15;;;14.00;99.90;;;;;;5111068;28;20016;-78
2023/01/02 04:32:32;;;;;;;10.50;3.08;;;14.20;99.90;;;;;;5110490;28;20024;-78
2023/01/02 04:34:59;;;;;;;8.82;2.10;;;14.00;99.90;;;;;;5110594;28;20028;-77
2023/01/02 04:37:30;;;;;;;14.43;2.35;;;14.00;99.90;;;;;;5110462;28;20028;-76
2023/01/02 04:40:00;;;;;;;8.25;2.55;;;14.00;99.90;;;;;;5109191;28;20036;-77
2023/01/02 04:42:26;;;;;;;10.73;2.40;;;14.00;99.90;;;;;;5109594;28;20012;-76
2023/01/02 04:44:52;;;;;;;11.20;2.60;;;14.00;99.90;;;;;;5109590;28;20035;-77
2023/01/02 04:47:17;;;;;;;15.55;2.42;;;14.00;99.90;;;;;;5110541;28;20124;-76
2023/01/02 04:49:43;;;;;;;4.38;2.08;;;14.10;99.90;;;;;;5111600;28;20047;-78
2023/01/02 04:52:08;;;;;;;10.55;3.30;;;14.10;99.90;;;;;;5110374;28;20055;-79
2023/01/02 04:54:34;;;;;;;7.05;2.03;;;14.10;99.90;;;;;;5113707;28;20024;-79
2023/01/02 04:57:00;;;;;;;9.60;2.38;;;14.10;99.90;;;;;;5114704;28;20094;-78
2023/01/02 04:59:25;;;;;;;7.22;2.35;;;14.00;99.90;;;;;;5114162;28;20019;-77
2023/01/02 05:01:51;;;;;;;10.05;2.30;;;14.20;99.90;;;;;;5112717;28;20027;-78
2023/01/02 05:04:17;;;;;;;10.30;2.67;;;14.10;99.90;;;;;;5113791;28;20038;-77
2023/01/02 05:06:42;;;;;;;9.27;2.47;;;14.10;99.90;;;;;;5114200;28;20473;-77
2023/01/02 05:09:08;;;;;;;7.95;1.90;;;14.10;99.90;;;;;;5113236;28;20499;-78
2023/01/02 05:11:34;;;;;;;6.93;2.38;;;14.10;99.90;;;;;;5112540;28;20118;-78
2023/01/02 05:13:59;;;;;;;11.10;2.35;;;14.10;99.90;;;;;;5113585;28;20032;-78
2023/01/02 05:16:25;;;;;;;8.57;2.38;;;14.10;99.90;;;;;;5113508;28;20050;-77
2023/01/02 05:18:51;;;;;;;15.77;2.70;;;14.20;99.90;;;;;;5113471;28;20051;-76
2023/01/02 05:24:02;;;;;;;7.22;2.50;;;14.20;99.90;;;;;;5113976;28;20031;-77
2023/01/02 05:26:32;;;;;;;8.18;2.22;;;14.20;99.90;;;;;;5113923;28;20478;-75
2023/01/02 05:28:58;;;;;;;7.78;2.40;;;14.20;99.90;;;;;;5112222;28;20031;-78
2023/01/02 05:31:25;;;;;;;8.43;2.53;;;14.20;99.90;;;;;;5112386;28;20091;-77
2023/01/02 05:33:52;;;;;;;11.82;3.50;;;14.20;99.90;;;;;;5113539;28;20240;-75
2023/01/02 05:36:18;;;;;;;9.48;2.15;;;14.10;99.90;;;;;;5113400;28;20059;-77
2023/01/02 05:38:43;;;;;;;10.63;2.42;;;14.30;99.90;;;;;;5113888;28;20102;-78
2023/01/02 05:41:10;;;;;;;9.38;2.45;;;14.20;99.90;;;;;;5112355;28;20042;-76
2023/01/02 05:43:37;;;;;;;60.95;32.40;;;14.20;99.90;;;;;;5113177;28;20024;-78
2023/01/02 05:46:06;;;;;;;39.00;20.52;;;14.20;99.90;;;;;;5112971;28;20237;-78
2023/01/02 05:48:32;;;;;;;6.28;3.05;;;14.20;99.90;;;;;;5112985;28;20110;-77
2023/01/02 05:51:01;;;;;;;6.10;2.67;;;14.10;99.90;;;;;;5113633;28;20425;-77
2023/01/02 05:53:27;;;;;;;12.43;3.22;;;14.10;99.90;;;;;;5112186;28;20188;-78
2023/01/02 05:55:53;;;;;;;11.35;2.42;;;14.20;99.90;;;;;;5113003;28;20382;-77
2023/01/02 05:58:18;;;;;;;10.25;3.00;;;14.10;99.90;;;;;;5112848;28;20350;-76
2023/01/02 06:00:44;;;;;;;8.23;2.08;;;14.20;99.90;;;;;;5111702;28;20081;-78
2023/01/02 06:03:10;;;;;;;10.73;3.58;;;14.20;99.90;;;;;;5113159;28;20084;-77
2023/01/02 06:05:35;;;;;;;13.07;2.60;;;14.20;99.90;;;;;;5112147;28;20039;-76
2023/01/02 06:08:01;;;;;;;10.48;2.67;;;14.20;99.90;;;;;;5111770;28;20024;-78
2023/01/02 06:10:27;;;;;;;5.72;2.38;;;14.20;99.90;;;;;;5112669;28;20039;-78
2023/01/02 06:12:52;;;;;;;6.35;2.50;;;14.20;99.90;;;;;;5112638;28;20462;-78
2023/01/02 06:15:18;;;;;;;9.35;2.58;;;14.20;99.90;;;;;;5112534;28;20139;-76
2023/01/02 06:17:43;;;;;;;15.00;2.95;;;14.20;99.90;;;;;;5113073;28;20404;-76
2023/01/02 06:20:09;;;;;;;8.55;2.70;;;14.30;99.90;;;;;;5112585;28;20122;-78
2023/01/02 06:22:35;;;;;;;11.10;3.42;;;14.20;99.90;;;;;;5112250;28;20477;-77
2023/01/02 06:25:00;;;;;;;10.55;2.67;;;14.20;99.90;;;;;;5112364;28;20032;-78
2023/01/02 06:27:26;;;;;;;13.63;2.40;;;14.20;99.90;;;;;;5112244;28;20024;-77
2023/01/02 06:29:52;;;;;;;9.57;2.47;;;14.20;99.90;;;;;;5112608;28;20024;-78
2023/01/02 06:32:17;;;;;;;11.07;2.50;;;14.10;99.90;;;;;;5112447;28;20341;-79
2023/01/02 06:34:43;;;;;;;8.63;2.30;;;14.10;99.90;;;;;;5112061;28;20107;-77
2023/01/02 06:37:09;;;;;;;13.18;2.58;;;14.10;99.90;;;;;;5112000;28;20059;-77
2023/01/02 06:39:34;;;;;;;11.95;3.63;;;14.20;99.90;;;;;;5110665;28;20031;-79
2023/01/02 06:42:00;;;;;;;8.25;2.65;;;14.10;99.90;;;;;;5111259;28;20405;-78
2023/01/02 06:44:26;;;;;;;8.23;2.38;;;14.10;99.90;;;;;;5110989;28;20031;-77
2023/01/02 06:46:51;;;;;;;6.50;2.30;;;14.20;99.90;;;;;;5110707;28;20024;-76
2023/01/02 06:49:17;;;;;;;13.98;2.40;;;14.20;99.90;;;;;;5111671;28;20024;-78
2023/01/02 06:51:43;;;;;;;11.82;2.97;;;14.20;99.90;;;;;;5110446;28;20043;-77
2023/01/02 06:54:08;;;;;;;12.65;2.97;;;14.20;99.90;;;;;;5112192;28;20019;-77
2023/01/02 06:56:34;;;;;;;7.07;1.98;;;14.20;99.90;;;;;;5111649;28;20032;-77
2023/01/02 06:59:00;;;;;;;6.72;1.88;;;14.30;99.90;;;;;;5111469;28;20035;-78
2023/01/02 07:01:25;;;;;;;7.07;2.03;;;14.30;99.90;;;;;;5111531;28;20046;-77
2023/01/02 07:03:51;;;;;;;11.63;2.00;;;14.30;99.90;;;;;;5111488;28;20043;-77
2023/01/02 07:06:19;;;;;;;6.80;1.98;;;14.40;99.90;;;;;;5111520;28;20051;-77
2023/01/02 07:08:45;;;;;;;10.30;2.30;;;14.30;99.90;;;;;;5112316;28;20084;-78
2023/01/02 07:11:15;;;;;;;12.02;2.25;;;14.30;99.90;;;;;;5110359;28;20031;-77
2023/01/02 07:13:42;;;;;;;9.18;2.20;;;14.40;99.90;;;;;;5111580;28;20058;-77
2023/01/02 07:16:11;;;;;;;7.68;2.40;;;14.50;99.90;;;;;;5111015;28;20048;-78
2023/01/02 07:18:37;;;;;;;6.50;2.08;;;14.50;99.90;;;;;;5111232;28;20536;-76
2023/01/02 07:21:04;;;;;;;7.55;2.28;;;14.40;99.90;;;;;;5111891;28;20119;-77
2023/01/02 07:23:29;;;;;;;11.63;2.42;;;14.50;99.90;;;;;;5111103;28;20028;-77
2023/01/02 07:25:57;;;;;;;6.93;2.15;;;14.50;99.90;;;;;;5111234;28;20019;-77
2023/01/02 07:28:23;;;;;;;8.35;2.30;;;14.50;99.90;;;;;;5111175;28;20096;-78
2023/01/02 07:30:50;;;;;;;6.80;2.17;;;14.50;99.90;;;;;;5111402;28;20028;-75
2023/01/02 07:33:16;;;;;;;9.68;2.78;;;14.50;99.90;;;;;;5111383;28;20535;-78
2023/01/02 07:35:45;;;;;;;6.90;2.20;;;14.50;99.90;;;;;;5111394;28;20028;-78
2023/01/02 07:38:11;;;;;;;6.15;2.05;;;14.50;99.90;;;;;;5111137;28;20028;-79
2023/01/02 07:40:37;;;;;;;13.13;2.05;;;14.50;99.90;;;;;;5110819;28;20034;-76
2023/01/02 07:43:02;;;;;;;6.18;1.90;;;14.60;99.90;;;;;;5109814;28;20119;-77
2023/01/02 07:45:28;;;;;;;6.78;2.72;;;14.60;99.90;;;;;;5110823;28;20456;-78
2023/01/02 07:47:53;;;;;;;8.85;2.78;;;14.60;99.90;;;;;;5111278;28;20028;-78
2023/01/02 07:50:19;;;;;;;8.57;1.85;;;14.50;99.90;;;;;;5111018;28;20027;-76
2023/01/02 07:52:45;;;;;;;14.57;2.03;;;14.50;99.90;;;;;;5111001;28;20055;-77
2023/01/02 07:55:10;;;;;;;9.07;1.85;;;14.50;99.90;;;;;;5109957;28;20089;-76
2023/01/02 07:57:36;;;;;;;5.43;1.83;;;14.50;99.90;;;;;;5109674;28;20085;-79
2023/01/02 08:00:04;;;;;;;7.45;2.08;;;14.50;99.90;;;;;;5111202;28;20102;-75
2023/01/02 08:02:29;;;;;;;7.88;1.73;;;14.50;99.90;;;;;;5110821;28;20043;-78
2023/01/02 08:04:55;;;;;;;14.82;2.22;;;14.50;99.90;;;;;;5109819;28;20028;-77
2023/01/02 08:07:22;;;;;;;11.85;2.65;;;14.40;99.90;;;;;;5110824;28;20024;-77
2023/01/02 08:09:48;;;;;;;8.43;2.47;;;14.50;99.90;;;;;;5110472;28;20452;-77
2023/01/02 08:12:13;;;;;;;6.72;2.47;;;14.50;99.90;;;;;;5110663;28;20092;-76
2023/01/02 08:14:39;;;;;;;6.90;2.33;;;14.40;99.90;;;;;;5111085;28;20415;-77
2023/01/02 08:17:05;;;;;;;8.10;2.30;;;14.50;99.90;;;;;;5109217;28;20439;-76
2023/01/02 08:19:30;;;;;;;7.45;2.00;;;14.50;99.90;;;;;;5110579;28;20032;-78
2023/01/02 08:21:56;;;;;;;9.00;2.90;;;14.50;99.90;;;;;;5110487;28;20101;-77
2023/01/02 08:24:21;;;;;;;6.78;2.42;;;14.40;99.90;;;;;;5110572;28;20076;-76
2023/01/02 08:26:47;;;;;;;6.40;1.95;;;14.40;99.90;;;;;;5110990;28;20024;-78
2023/01/02 08:29:13;;;;;;;11.05;2.92;;;14.50;99.90;;;;;;5112705;28;20039;-76
2023/01/02 08:31:38;;;;;;;12.50;2.30;;;14.50;99.90;;;;;;5114395;28;20020;-78
2023/01/02 08:34:04;;;;;;;6.22;2.20;;;14.60;99.90;;;;;;5114349;28;20119;-77
2023/01/02 08:36:30;;;;;;;9.75;1.90;;;14.40;99.90;;;;;;5114378;28;20035;-77
2023/01/02 08:38:55;;;;;;;11.63;2.05;;;14.50;99.90;;;;;;5114013;28;20024;-76
2023/01/02 08:41:36;;;;;;;6.25;1.92;;;14.50;99.90;;;;;;5113556;28;20028;-77
2023/01/02 08:44:01;;;;;;;7.13;2.17;;;14.50;99.90;;;;;;5114841;28;20051;-76
2023/01/02 08:46:27;;;;;;;8.93;1.98;;;14.50;99.90;;;;;;5114057;28;20058;-77
2023/01/02 08:48:53;;;;;;;10.75;1.83;;;14.50;99.90;;;;;;5112904;28;20027;-77
2023/01/02 08:51:19;;;;;;;8.30;2.20;;;14.50;99.90;;;;;;5114359;28;20506;-77
2023/01/02 08:53:45;;;;;;;11.65;2.03;;;14.60;99.90;;;;;;5114776;28;20024;-77
2023/01/02 08:56:30;;;;;;;11.70;1.80;;;14.60;99.90;;;;;;5114254;28;20376;-76
2023/01/02 08:59:03;;;;;;;4.97;2.05;;;14.60;99.90;;;;;;5114077;28;20115;-77
2023/01/02 09:01:31;;;;;;;9.60;2.70;;;14.60;99.90;;;;;;5113051;28;20051;-76
2023/01/02 09:03:57;;;;;;;7.73;2.20;;;14.60;99.90;;;;;;5113951;28;20047;-78
2023/01/02 09:06:25;;;;;;;5.68;2.13;;;14.70;99.90;;;;;;5113882;27;20317;-77
2023/01/02 09:08:54;;;;;;;9.25;3.15;;;14.70;99.90;;;;;;5113539;28;20031;-78
2023/01/02 09:11:23;;;;;;;15.32;2.58;;;14.70;99.90;;;;;;5112785;28;20107;-77
2023/01/02 09:13:49;;;;;;;11.32;2.03;;;14.80;99.90;;;;;;5112650;28;20095;-76
2023/01/02 09:16:15;;;;;;;7.05;2.00;;;14.70;99.90;;;;;;5112407;28;20048;-77
2023/01/02 09:18:40;;;;;;;8.27;1.60;;;14.80;99.90;;;;;;5113654;28;20042;-77
2023/01/02 09:21:07;;;;;;;9.02;2.00;;;14.80;99.90;;;;;;5114062;28;20027;-76
2023/01/02 09:23:32;;;;;;;4.25;1.70;;;14.80;99.90;;;;;;5113736;28;20512;-76
2023/01/02 09:26:04;;;;;;;8.27;2.00;;;14.80;99.90;;;;;;5112515;28;20035;-77
2023/01/02 09:28:34;;;;;;;13.13;2.17;;;14.90;99.80;;;;;;5112725;28;20100;-76
2023/01/02 09:31:02;;;;;;;10.13;2.08;;;14.90;99.90;;;;;;5113695;28;20139;-77
2023/01/02 09:33:28;;;;;;;8.38;2.33;;;14.90;99.70;;;;;;5112463;28;20080;-75
2023/01/02 09:35:54;;;;;;;9.50;1.85;;;15.00;99.60;;;;;;5113932;28;20400;-77
2023/01/02 09:38:19;;;;;;;9.43;1.67;;;15.20;99.60;;;;;;5113473;28;20100;-77
2023/01/02 09:40:51;;;;;;;5.43;2.10;;;15.10;99.40;;;;;;5110864;28;20031;-76
2023/01/02 09:43:40;;;;;;;4.90;1.33;;;15.10;99.20;;;;;;5113419;28;20032;-75
2023/01/02 09:46:12;;;;;;;11.23;2.13;;;15.10;99.10;;;;;;5111506;28;20476;-77
2023/01/02 09:48:38;;;;;;;6.35;1.58;;;15.20;99.30;;;;;;5113167;28;20127;-78
2023/01/02 09:51:04;;;;;;;7.15;1.70;;;15.20;99.30;;;;;;5112671;28;20118;-76
2023/01/02 09:53:32;;;;;;;4.63;1.85;;;15.20;99.10;;;;;;5113126;27;20036;-77
2023/01/02 09:56:11;;;;;;;5.32;1.40;;;15.20;98.90;;;;;;5112883;28;20028;-77
2023/01/02 09:58:52;;;;;;;11.32;3.47;;;15.20;99.10;;;;;;5111934;28;20044;-77
2023/01/02 10:01:47;;;;;;;9.82;2.30;;;15.30;98.80;;;;;;5112950;28;20032;-76
2023/01/02 10:04:40;;;;;;;9.00;1.92;;;15.30;98.80;;;;;;5100692;28;20038;-76
2023/01/02 10:07:16;;;;;;;6.20;1.85;;;15.30;98.80;;;;;;5100729;28;20472;-75
2023/01/02 10:09:56;;;;;;;7.55;1.52;;;15.40;98.80;;;;;;5111586;28;20515;-77
2023/01/02 10:12:36;;;;;;;6.85;1.55;;;15.30;98.70;;;;;;5112644;28;20035;-76
2023/01/02 10:15:06;;;;;;;9.80;1.98;;;15.30;98.80;;;;;;5111596;28;20020;-76
2023/01/02 10:17:41;;;;;;;5.00;1.40;;;15.30;98.70;;;;;;5111221;28;20042;-77
2023/01/02 10:20:18;;;;;;;7.75;2.22;;;15.20;98.80;;;;;;5112412;28;20027;-76
2023/01/02 10:22:47;;;;;;;3.95;1.50;;;15.20;99.00;;;;;;5111211;28;20369;-77
2023/01/02 10:25:44;;;;;;;5.75;1.85;;;15.10;99.30;;;;;;5112357;28;20108;-76
2023/01/02 10:28:13;;;;;;;5.45;1.35;;;15.10;99.80;;;;;;5104176;27;20042;-76
2023/01/02 10:31:11;;;;;;;5.50;1.73;;;15.00;99.80;;;;;;5112437;28;20033;-77
2023/01/02 10:33:52;;;;;;;5.47;1.80;;;15.00;99.90;;;;;;5109816;27;20027;-77
2023/01/02 10:36:21;;;;;;;9.85;2.22;;;14.90;99.90;;;;;;5112027;28;20454;-79
2023/01/02 10:38:47;;;;;;;7.65;1.70;;;14.80;99.90;;;;;;5117298;28;20024;-77
2023/01/02 10:41:13;;;;;;;5.85;1.67;;;14.80;99.90;;;;;;5110917;28;20047;-76
2023/01/02 10:43:38;;;;;;;7.22;1.67;;;14.80;99.90;;;;;;5112218;28;20032;-76
2023/01/02 10:46:04;;;;;;;4.63;1.38;;;14.80;99.90;;;;;;5111912;28;20091;-78
2023/01/02 10:48:33;;;;;;;5.63;1.85;;;14.70;99.90;;;;;;5111922;28;20032;-76
2023/01/02 10:51:05;;;;;;;5.22;1.25;;;14.70;99.90;;;;;;5111869;28;20369;-76
2023/01/02 10:53:35;;;;;;;6.53;1.70;;;14.70;99.90;;;;;;5111786;28;20026;-77
2023/01/02 10:56:06;;;;;;;6.07;1.50;;;14.60;99.90;;;;;;5112214;28;20126;-77
2023/01/02 10:58:33;;;;;;;7.28;2.03;;;14.60;99.90;;;;;;5111922;28;20458;-75
2023/01/02 11:01:25;;;;;;;6.95;1.63;;;14.60;99.90;;;;;;5110617;28;20034;-77
2023/01/02 11:03:54;;;;;;;9.00;1.70;;;14.60;99.90;;;;;;5108519;28;20489;-77
2023/01/02 11:06:32;;;;;;;3.88;1.63;;;14.70;99.90;;;;;;5110687;28;20033;-75
2023/01/02 11:09:00;;;;;;;5.00;1.55;;;14.70;99.90;;;;;;5112518;28;20341;-78
2023/01/02 11:11:28;;;;;;;8.15;2.00;;;14.70;99.90;;;;;;5111829;28;20032;-77
2023/01/02 11:14:03;;;;;;;7.22;1.70;;;14.80;99.90;;;;;;5111546;28;20127;-78
2023/01/02 11:16:30;;;;;;;5.57;2.00;;;14.70;99.90;;;;;;5110167;28;20039;-76
2023/01/02 11:18:58;;;;;;;8.55;2.05;;;14.70;99.90;;;;;;5111564;28;20046;-78
2023/01/02 11:21:31;;;;;;;10.32;1.60;;;14.70;99.90;;;;;;5101885;27;20396;-79
2023/01/02 11:24:14;;;;;;;6.80;1.40;;;14.70;99.90;;;;;;5124938;27;20502;-78
2023/01/02 11:26:42;;;;;;;3.88;1.60;;;14.70;99.90;;;;;;5110371;28;20036;-77
2023/01/02 11:29:37;;;;;;;5.35;1.70;;;14.50;99.90;;;;;;5111593;28;20035;-78
2023/01/02 11:32:03;;;;;;;8.80;1.58;;;14.30;99.90;;;;;;5110456;28;20496;-79
2023/01/02 11:34:36;;;;;;;4.40;1.77;;;14.20;99.90;;;;;;5110108;28;20043;-78
2023/01/02 11:37:04;;;;;;;3.33;1.25;;;14.00;99.90;;;;;;5111487;28;20028;-77
2023/01/02 11:39:32;;;;;;;6.30;1.63;;;13.90;99.90;;;;;;5110005;28;20138;-78
2023/01/02 11:44:55;;;;;;;6.05;1.83;;;13.90;99.90;;;;;;5111697;28;19918;-78
2023/01/02 11:47:48;;;;;;;9.52;2.22;;;13.80;99.90;;;;;;5110885;28;20389;-78
2023/01/02 11:50:29;;;;;;;7.43;2.55;;;13.90;99.90;;;;;;5107994;28;20024;-78
2023/01/02 11:53:17;;;;;;;5.05;2.08;;;14.00;99.90;;;;;;5110881;28;20028;-77
2023/01/02 11:55:55;;;;;;;5.88;1.77;;;13.90;99.90;;;;;;5111011;28;20054;-77
2023/01/02 11:58:33;;;;;;;8.02;1.48;;;13.90;99.90;;;;;;5109424;28;20028;-77
2023/01/02 12:01:17;;;;;;;4.35;1.67;;;13.90;99.90;;;;;;5110910;28;20036;-78
2023/01/02 12:03:43;;;;;;;6.97;1.60;;;13.60;99.90;;;;;;5113575;28;20084;-77
2023/01/02 12:06:14;;;;;;;6.30;1.50;;;13.60;99.90;;;;;;5114577;28;20096;-78
2023/01/02 12:09:02;;;;;;;5.55;1.33;;;13.60;99.90;;;;;;5113660;28;20447;-77
2023/01/02 12:11:28;;;;;;;;;;;13.50;99.90;;;;;;5114491;28;20361;-77
2023/01/02 12:14:22;;;;;;;6.88;1.48;;;13.60;99.90;;;;;;5115010;28;19911;-78
2023/01/02 12:16:56;;;;;;;3.83;0.90;;;13.50;99.90;;;;;;5114934;28;20108;-77
2023/01/02 12:19:46;;;;;;;7.97;1.00;;;13.50;99.90;;;;;;5114212;28;20047;-77
2023/01/02 12:22:18;;;;;;;6.20;1.00;;;13.50;99.90;;;;;;5114891;28;20046;-77
2023/01/02 12:25:06;;;;;;;1.70;1.20;;;13.50;99.90;;;;;;5114966;28;20054;-78
2023/01/02 12:27:44;;;;;;;6.68;1.02;;;13.50;99.90;;;;;;5114786;28;20086;-77
2023/01/02 12:30:13;;;;;;;2.13;1.00;;;13.50;99.90;;;;;;5115509;28;20066;-79
2023/01/02 12:32:58;;;;;;;2.17;1.00;;;13.50;99.90;;;;;;5114070;28;20457;-78
2023/01/02 12:35:42;;;;;;;1.38;0.70;;;13.40;99.90;;;;;;5114926;28;20046;-77
2023/01/02 12:38:10;;;;;;;1.85;0.80;;;13.40;99.90;;;;;;5113940;28;20031;-77
2023/01/02 12:40:45;;;;;;;5.60;0.80;;;13.30;99.90;;;;;;5114667;28;20028;-78
2023/01/02 12:43:29;;;;;;;2.70;0.85;;;13.20;99.90;;;;;;5113571;28;20119;-78
2023/01/02 12:46:11;;;;;;;2.50;0.95;;;13.20;99.90;;;;;;5113362;28;20394;-79
2023/01/02 12:49:16;;;;;;;2.05;0.90;;;13.20;99.90;;;;;;5114304;28;20145;-78
2023/01/02 12:52:02;;;;;;;1.85;0.90;;;13.10;99.90;;;;;;5113935;27;20149;-77
2023/01/02 12:54:54;;;;;;;1.92;1.00;;;13.10;99.90;;;;;;5113379;28;20023;-78
2023/01/02 12:57:27;;;;;;;0.57;0.40;;;13.10;99.90;;;;;;5114135;28;20027;-78
2023/01/02 13:00:01;;;;;;;2.15;0.60;;;13.10;99.90;;;;;;5113751;28;20016;-78
2023/01/02 13:02:50;;;;;;;0.90;0.80;;;13.10;99.90;;;;;;5113867;27;20268;-78
2023/01/02 13:05:20;;;;;;;1.15;0.47;;;13.00;99.90;;;;;;5113119;28;20409;-79
2023/01/02 13:08:01;;;;;;;0.65;0.47;;;13.00;99.90;;;;;;5114621;28;20453;-79